Latest Weather Observations for Cocos Island

IDW60801

Issued at 2:32 am WST Saturday 7 May 2016 (issued every 30 minutes, with the page automatically refreshed every 10 minutes)

About weather observations | Map of weather stations | Latest weather observations for WA | Other Formats
Station Details ID: 200284 Name: COCOS ISLAND AIRPORT Lat: -12.19 Lon: 96.83 Height: 3.0 m
Data from the previous 72 hours. | See also: Recent months at Cocos Island
Date/Time
WST
Temp
°C
App
Temp
°C
Dew
Point
Rel
Hum
%
Delta-T
°C
Wind Press
QNH
hPa
Press
MSL
hPa
Rain
since 9 am
mm
Dir
 
Spd
km/h
Gust
km/h
Spd
kts
Gust
kts
07/02:30am 27.2 27.5 24.3 84 2.0 ESE 30 35 16 19 1009.0 - 2.2
07/02:00am 27.2 27.3 24.0 83 2.2 SE 30 37 16 20 1009.2 1009.1 2.2
07/01:49am 27.2 27.5 24.2 84 2.1 SE 30 39 16 21 1009.4 - 2.2
07/01:35am 27.2 27.7 24.6 86 1.8 SE 30 37 16 20 1009.6 - 2.2
07/01:30am 27.1 27.5 24.5 86 1.8 SE 30 37 16 20 1009.6 - 2.2
07/01:00am 27.0 28.0 24.7 87 1.6 SE 28 39 15 21 1010.0 - 2.2
07/12:44am 26.8 28.3 24.9 89 1.3 SE 26 37 14 20 1010.0 - 2.2
07/12:30am 27.5 29.1 24.5 84 2.1 SE 24 33 13 18 1010.0 - 2.0
07/12:00am 27.6 29.1 24.3 82 2.3 SE 24 33 13 18 1010.1 - 2.0
 
Date/Time
WST
Temp
°C
App
Temp
°C
Dew
Point
Rel
Hum
%
Delta-T
°C
Wind Press
QNH
hPa
Press
MSL
hPa
Rain
since 9 am
mm
Dir
 
Spd
km/h
Gust
km/h
Spd
kts
Gust
kts
06/11:30pm 27.3 29.3 24.6 85 1.9 SE 22 30 12 16 1010.1 - 2.0
06/11:00pm 27.3 27.9 24.1 83 2.2 SE 28 35 15 19 1010.2 1010.1 2.0
06/10:30pm 27.3 28.6 24.1 83 2.2 SE 24 33 13 18 1010.1 - 2.0
06/10:00pm 27.2 28.6 24.2 84 2.1 SE 24 33 13 18 1009.9 - 2.0
06/09:51pm 27.2 28.6 24.2 84 2.1 SE 24 32 13 17 1009.8 - 2.0
06/09:32pm 27.0 28.8 24.3 85 1.9 SE 22 30 12 16 1009.6 - 2.0
06/09:30pm 27.0 28.7 24.1 84 2.0 SE 22 30 12 16 1009.6 - 2.0
06/09:00pm 27.0 29.3 24.4 86 1.8 SE 20 32 11 17 1009.3 - 2.0
06/08:30pm 27.0 28.4 23.6 81 2.3 SE 22 32 12 17 1009.1 - 2.0
06/08:00pm 27.1 28.7 23.8 82 2.3 ESE 22 32 12 17 1008.6 1008.5 2.0
06/07:30pm 27.1 27.6 23.9 82 2.2 SE 28 35 15 19 1008.6 - 2.0
06/07:25pm 27.0 27.4 23.8 82 2.2 SE 28 35 15 19 1008.6 - 2.0
06/07:07pm 26.8 28.0 24.5 87 1.6 SE 26 35 14 19 1008.7 - 2.0
06/07:00pm 27.1 28.7 24.5 86 1.8 SE 24 32 13 17 1008.7 - 2.0
06/06:30pm 27.2 29.1 23.7 81 2.4 SE 20 24 11 13 1008.7 - 2.0
06/06:00pm 27.4 29.5 23.8 81 2.5 SE 19 26 10 14 1008.4 - 2.0
06/05:51pm 27.4 29.3 23.8 81 2.5 SE 20 24 11 13 1008.4 - 2.0
06/05:30pm 27.2 29.7 24.5 85 1.9 SE 19 22 10 12 1008.3 - 2.0
06/05:15pm 27.2 30.1 24.5 85 1.9 SE 17 22 9 12 1008.3 - 2.0
06/05:00pm 27.3 30.5 24.9 87 1.7 SE 17 22 9 12 1008.2 1008.1 2.0
06/04:30pm 27.5 30.1 24.9 86 1.8 SSE 20 26 11 14 1008.0 - 2.0
06/04:23pm 27.4 29.9 24.7 85 1.9 SSE 20 24 11 13 1007.9 - 2.0
06/04:00pm 27.1 30.4 25.7 92 1.0 SE 19 26 10 14 1007.9 - 2.0
06/03:30pm 27.7 31.7 25.0 85 1.9 SE 13 17 7 9 1008.0 - 2.0
06/03:00pm 27.6 31.0 24.7 84 2.0 SE 15 19 8 10 1008.5 - 2.0
06/02:30pm 27.7 30.9 25.0 85 1.9 SE 17 20 9 11 1009.1 - 2.0
06/02:00pm 27.4 30.8 25.3 88 1.5 ESE 17 20 9 11 1009.4 1009.3 2.0
06/01:40pm 27.3 30.0 25.0 87 1.6 SE 20 26 11 14 1009.7 - 2.0
06/01:30pm 27.4 30.4 25.3 88 1.5 SE 19 26 10 14 1009.9 - 2.0
06/01:00pm 27.1 29.2 24.1 84 2.1 ESE 20 28 11 15 1010.5 - 2.0
06/12:30pm 26.6 29.1 24.7 89 1.3 SE 20 26 11 14 1010.7 - 2.0
06/12:00pm 26.2 28.7 24.8 92 1.0 SE 20 26 11 14 1011.0 - 1.6
06/11:40am 25.9 28.3 24.6 92 0.9 ESE 20 26 11 14 1011.0 - 1.4
06/11:30am 26.0 28.7 24.7 92 0.9 ESE 19 24 10 13 1011.1 - 1.2
06/11:00am 26.0 29.2 24.4 91 1.1 ESE 15 20 8 11 1011.1 1011.0 16.2
06/10:30am 25.9 29.3 24.7 93 0.8 ESE 15 20 8 11 1010.8 - 15.6
06/10:00am 25.9 29.3 24.7 93 0.8 ESE 15 20 8 11 1010.6 - 14.6
06/09:56am 25.9 28.9 24.7 93 0.8 ESE 17 24 9 13 1010.6 - 14.6
06/09:30am 25.7 28.2 24.7 94 0.7 ESE 20 26 11 14 1010.2 - 13.6
06/09:11am 25.5 27.5 24.5 94 0.7 ESE 22 28 12 15 1009.7 - 12.4
06/09:00am 25.7 27.4 24.7 94 0.7 ESE 24 32 13 17 1009.6 - 12.2
06/08:50am 25.6 27.8 24.9 96 0.5 ESE 22 32 12 17 1009.4 - 12.0
06/08:30am 25.5 27.2 24.6 95 0.6 ESE 24 33 13 18 1009.2 - 8.8
06/08:09am 26.5 29.9 25.2 92 0.9 E 17 20 9 11 1008.8 - 0.6
06/08:00am 26.3 30.0 24.6 90 1.2 E 13 17 7 9 1008.7 1008.6 0.4
06/07:30am 26.1 29.2 24.8 92 0.9 NE 17 20 9 11 1008.2 - 0.4
06/07:25am 26.2 29.4 24.9 92 0.9 NE 17 20 9 11 1008.1 - 0.4
06/07:11am 26.4 29.3 24.5 89 1.3 ENE 17 26 9 14 1008.1 - 0.2
06/07:00am 27.0 29.2 24.3 85 1.9 E 20 28 11 15 1008.0 - 0.0
06/06:30am 27.2 29.7 24.5 85 1.9 SE 19 26 10 14 1008.1 - 0.0
06/06:00am 26.9 30.1 25.0 89 1.3 SSE 17 22 9 12 1008.0 - 0.0
06/05:30am 27.3 31.0 25.2 88 1.5 SSE 15 24 8 13 1008.1 - 0.0
06/05:00am 27.6 30.4 24.9 85 1.9 SE 19 24 10 13 1008.1 1008.0 0.0
06/04:30am 27.7 30.0 24.4 82 2.3 ESE 20 26 11 14 1008.3 - 0.0
06/04:00am 27.5 30.1 24.6 84 2.0 ESE 19 24 10 13 1008.5 - 0.0
06/03:30am 27.1 30.8 24.5 86 1.8 ESE 13 19 7 10 1008.6 - 0.0
06/03:00am 27.0 30.2 24.4 86 1.8 ESE 15 22 8 12 1009.0 - 0.0
06/02:30am 26.7 29.6 24.4 87 1.6 E 17 20 9 11 1008.9 - 0.0
06/02:00am 26.6 29.3 24.7 89 1.3 ESE 19 26 10 14 1009.4 1009.3 0.0
06/01:50am 26.7 27.8 24.4 87 1.6 ESE 26 35 14 19 1009.5 - 0.0
06/01:30am 27.5 31.0 25.5 89 1.4 E 17 22 9 12 1009.7 - 0.0
06/01:00am 27.2 31.3 25.2 89 1.4 E 13 17 7 9 1009.8 - 0.0
06/12:30am 27.0 29.7 24.1 84 2.0 ESE 17 24 9 13 1010.0 - 0.0
06/12:00am 27.7 31.3 25.0 85 1.9 ESE 15 19 8 10 1010.2 - 0.0
 
Date/Time
WST
Temp
°C
App
Temp
°C
Dew
Point
Rel
Hum
%
Delta-T
°C
Wind Press
QNH
hPa
Press
MSL
hPa
Rain
since 9 am
mm
Dir
 
Spd
km/h
Gust
km/h
Spd
kts
Gust
kts
05/11:30pm 27.6 31.0 25.2 87 1.7 E 17 22 9 12 1010.3 - 0.0
05/11:00pm 27.5 30.8 25.1 87 1.7 ESE 17 24 9 13 1010.1 1010.0 0.0
05/10:30pm 27.5 30.3 25.2 87 1.6 ESE 20 28 11 15 1010.0 - 0.0
05/10:00pm 28.0 30.9 25.1 84 2.0 ESE 19 26 10 14 1010.0 - 0.0
05/09:30pm 27.7 31.0 25.1 86 1.8 ESE 17 22 9 12 1009.4 - 0.0
05/09:00pm 28.0 30.5 24.7 82 2.3 E 20 28 11 15 1009.0 - 0.0
05/08:30pm 28.1 30.8 25.0 83 2.2 E 20 28 11 15 1008.7 - 0.0
05/08:00pm 28.0 31.0 25.3 85 1.9 E 19 28 10 15 1008.5 1008.4 0.0
05/07:30pm 27.9 30.7 25.2 85 1.9 E 20 30 11 16 1008.0 - 0.0
05/07:00pm 28.0 30.9 25.4 86 1.8 E 20 28 11 15 1007.9 - 0.0
05/06:30pm 27.7 30.0 25.6 88 1.5 E 24 32 13 17 1007.7 - 0.0
05/06:14pm 27.3 29.9 25.5 90 1.3 ESE 22 30 12 16 1007.6 - 0.0
05/06:00pm 28.1 31.2 25.4 85 1.9 ESE 19 32 10 17 1007.5 - 0.0
05/05:55pm 28.6 32.1 25.5 83 2.2 ESE 17 20 9 11 1007.5 - 0.0
05/05:30pm 28.9 31.8 25.9 84 2.1 E 22 28 12 15 1007.3 - 0.0
05/05:00pm 29.1 32.1 25.6 81 2.5 E 20 26 11 14 1007.3 1007.2 0.0
05/04:30pm 29.6 31.8 25.5 78 2.9 E 24 32 13 17 1007.4 - 0.0
05/04:26pm 29.4 32.1 25.6 80 2.7 E 22 30 12 16 1007.4 - 0.0
05/04:07pm 29.2 31.5 25.7 81 2.5 E 24 30 13 16 1007.3 - 0.0
05/04:00pm 29.2 31.6 25.8 82 2.4 E 24 30 13 16 1007.2 - 0.0
05/03:30pm 29.3 31.7 25.8 81 2.5 E 24 33 13 18 1007.3 - 0.0
05/03:00pm 29.9 31.9 25.8 78 2.9 E 26 32 14 17 1007.6 - 0.0
05/02:30pm 28.8 32.0 24.9 79 2.7 ESE 17 24 9 13 1008.1 - 0.0
05/02:00pm 28.3 30.0 24.7 81 2.5 SE 24 32 13 17 1008.8 1008.7 0.0
05/01:30pm 28.2 30.9 25.7 86 1.8 SE 22 28 12 15 1009.4 - 0.0
05/01:00pm 27.7 29.2 25.0 85 1.9 SE 26 32 14 17 1009.7 - 0.0
05/12:30pm 27.6 28.7 25.0 86 1.8 SE 28 35 15 19 1010.2 - 0.0
05/12:00pm 27.8 28.5 25.5 87 1.6 ESE 32 44 17 24 1010.4 - 0.0
05/11:30am 27.2 27.8 25.3 89 1.3 SE 32 39 17 21 1010.5 - 0.0
05/11:00am 26.7 25.6 24.8 89 1.3 SE 39 50 21 27 1010.6 1010.5 4.0
05/10:55am 26.8 26.2 24.9 89 1.3 SE 37 48 20 26 1010.6 - 4.0
05/10:30am 29.1 30.6 25.0 78 2.9 E 26 35 14 19 1010.3 - 3.8
05/10:00am 29.0 30.7 25.3 80 2.6 E 26 30 14 16 1009.8 - 3.6
05/09:30am 28.7 30.8 25.4 82 2.3 E 24 28 13 15 1009.5 - 3.6
05/09:00am 28.4 31.1 25.1 82 2.3 E 20 28 11 15 1009.4 - 3.6
05/08:30am 27.9 29.6 24.7 83 2.2 E 24 30 13 16 1008.8 - 3.6
05/08:00am 27.5 29.3 24.9 86 1.8 E 24 28 13 15 1008.5 1008.4 3.6
05/07:30am 27.5 30.5 24.6 84 2.0 E 17 24 9 13 1008.3 - 3.6
05/07:00am 27.2 31.3 25.2 89 1.4 ESE 13 20 7 11 1007.9 - 3.6
05/06:30am 26.9 28.6 24.7 88 1.5 ESE 24 30 13 16 1007.8 - 3.6
05/06:00am 27.4 30.1 24.7 85 1.9 ESE 19 26 10 14 1007.8 - 3.6
05/05:30am 27.2 29.8 24.9 87 1.6 E 20 26 11 14 1007.7 - 3.6
05/05:00am 27.1 29.8 25.1 89 1.4 E 20 28 11 15 1007.9 1007.8 3.6
05/04:44am 26.8 29.1 25.1 90 1.2 SE 22 28 12 15 1008.1 - 3.6
05/04:30am 26.1 27.9 24.8 92 0.9 SE 24 32 13 17 1008.2 - 3.6
05/04:19am 26.6 29.0 25.2 92 1.0 E 22 32 12 17 1008.2 - 3.6
05/04:00am 27.1 29.4 25.0 88 1.5 E 22 30 12 16 1008.1 - 3.4
05/03:30am 27.2 29.4 24.8 87 1.7 E 22 30 12 16 1008.5 - 3.4
05/03:12am 27.4 30.2 25.0 87 1.7 ESE 19 30 10 16 1008.7 - 3.4
05/03:00am 27.4 30.1 25.0 87 1.7 ESE 20 28 11 15 1008.8 - 3.4
05/02:34am 27.4 29.9 24.8 86 1.8 ESE 20 26 11 14 1008.9 - 3.4
05/02:30am 27.5 30.1 24.9 86 1.8 ESE 20 28 11 15 1008.9 - 3.4
05/02:21am 27.4 29.4 24.5 84 2.0 ESE 22 30 12 16 1009.0 - 3.4
05/02:00am 27.5 28.3 24.5 84 2.1 SE 28 37 15 20 1009.0 1008.9 3.4
05/01:30am 27.3 28.9 25.2 88 1.5 SE 26 35 14 19 1008.8 - 3.4
05/01:08am 27.3 29.3 25.2 88 1.5 SE 24 33 13 18 1008.8 - 3.4
05/01:00am 27.3 28.8 25.0 87 1.6 SE 26 35 14 19 1008.9 - 3.4
05/12:30am 27.3 28.6 24.7 86 1.8 SSE 26 35 14 19 1009.0 - 3.4
05/12:00am 27.3 28.8 24.9 87 1.7 SSE 26 35 14 19 1009.3 - 3.4
 
Date/Time
WST
Temp
°C
App
Temp
°C
Dew
Point
Rel
Hum
%
Delta-T
°C
Wind Press
QNH
hPa
Press
MSL
hPa
Rain
since 9 am
mm
Dir
 
Spd
km/h
Gust
km/h
Spd
kts
Gust
kts
04/11:48pm 27.2 27.9 24.3 84 2.0 SSE 28 37 15 20 1009.3 - 3.4
04/11:30pm 27.2 28.7 24.9 87 1.6 SSE 26 37 14 20 1009.3 - 3.4
04/11:26pm 27.2 29.0 24.9 87 1.6 SSE 24 33 13 18 1009.2 - 3.4
04/11:00pm 27.1 28.9 24.8 87 1.6 SSE 24 33 13 18 1009.2 1009.1 3.4
04/10:30pm 26.9 29.5 24.9 89 1.4 SSE 20 30 11 16 1009.2 - 3.4
04/10:00pm 26.7 28.9 24.8 89 1.3 SSE 22 28 12 15 1009.2 - 3.4
04/09:30pm 26.6 29.3 25.0 91 1.1 S 20 24 11 13 1008.7 - 3.4
04/09:00pm 27.1 32.5 25.4 90 1.2 SSW 7 11 4 6 1008.9 - 3.4
04/08:30pm 27.2 31.8 25.3 89 1.3 W 11 15 6 8 1008.8 - 3.4
04/08:00pm 26.9 30.6 24.6 87 1.6 WNW 13 15 7 8 1008.7 1008.6 3.4
04/07:43pm 26.8 31.1 24.9 89 1.3 WNW 11 15 6 8 1008.5 - 3.4
04/07:33pm 26.7 32.4 25.6 94 0.8 NW 6 15 3 8 1008.5 - 3.4
04/07:30pm 26.7 33.0 25.4 93 0.9 NW 2 9 1 5 1008.5 - 3.4
04/07:04pm 26.6 31.9 25.2 92 1.0 NW 7 17 4 9 1008.5 - 2.8
04/07:00pm 27.0 33.1 25.6 92 1.0 NNW 4 13 2 7 1008.4 - 2.4
04/06:30pm 26.9 32.2 25.3 91 1.1 NE 7 11 4 6 1008.2 - 2.4
04/06:13pm 26.7 30.9 25.3 92 1.0 NNE 13 17 7 9 1008.0 - 2.4
04/06:00pm 26.4 30.4 25.0 92 1.0 N 13 17 7 9 1007.9 - 2.0
04/05:36pm 27.1 32.0 25.2 89 1.3 NNW 9 13 5 7 1008.1 - 0.0
04/05:30pm 27.2 31.6 25.1 88 1.5 N 11 17 6 9 1008.1 - 0.0
04/05:00pm 27.9 33.0 25.6 87 1.6 NE 9 13 5 7 1007.8 1007.7 0.0
04/04:30pm 27.7 32.5 25.1 86 1.8 NNW 9 13 5 7 1008.0 - 0.0
04/04:00pm 27.2 30.4 24.3 84 2.0 N 15 22 8 12 1008.3 - 0.0
04/03:30pm 27.7 30.2 24.8 84 2.0 NNE 20 24 11 13 1008.3 - 0.0
04/03:00pm 27.5 29.6 25.4 88 1.5 N 24 28 13 15 1008.4 - 0.0
04/02:30pm 28.4 31.6 25.9 86 1.8 N 20 26 11 14 1008.8 - 0.0
04/02:00pm 29.4 33.8 25.0 77 3.1 NNE 11 15 6 8 1009.1 1009.0 0.0
04/01:30pm 29.6 33.9 25.5 78 2.9 NNE 13 15 7 8 1009.2 - 0.0
04/01:00pm 29.1 33.1 25.1 79 2.8 NNE 13 17 7 9 1009.4 - 0.0
04/12:30pm 28.7 32.7 25.0 80 2.6 NNE 13 17 7 9 1009.6 - 0.0
04/12:00pm 28.9 32.9 25.1 80 2.7 NNE 13 17 7 9 1009.5 - 0.0
04/11:30am 29.0 34.3 25.8 83 2.3 NE 9 13 5 7 1009.7 - 0.0
04/11:00am 29.1 33.9 25.7 82 2.4 NE 11 15 6 8 1009.9 1009.8 0.6
04/10:30am 28.5 33.7 25.7 85 2.0 NE 9 13 5 7 1009.7 - 0.4
04/10:00am 27.9 34.5 25.3 86 1.8 CALM 0 6 0 3 1009.5 - 0.4
04/09:30am 28.6 35.2 25.3 82 2.3 CALM 0 0 0 0 1009.3 - 0.4
04/09:00am 27.2 32.6 25.2 89 1.4 SSE 6 9 3 5 1009.3 - 0.4
04/08:30am 27.1 32.5 25.4 90 1.2 SSE 7 9 4 5 1008.9 - 0.4
04/08:00am 25.8 30.7 24.4 92 1.0 S 6 7 3 4 1008.6 1008.5 0.4
04/07:30am 26.0 30.4 24.4 91 1.1 SSE 9 15 5 8 1008.5 - 0.4
04/07:00am 26.3 32.0 24.4 89 1.3 ESE 2 7 1 4 1008.3 - 0.4
04/06:30am 26.6 32.7 24.4 88 1.5 CALM 0 0 0 0 1008.2 - 0.4
04/06:00am 26.9 31.7 24.4 86 1.7 ESE 7 11 4 6 1008.2 - 0.4
04/05:30am 26.9 30.4 24.2 85 1.9 ESE 13 19 7 10 1008.0 - 0.4
04/05:00am 26.7 30.5 24.7 89 1.4 SSE 13 15 7 8 1007.8 1007.7 0.4
04/04:30am 26.7 30.8 24.5 88 1.5 SSE 11 15 6 8 1007.8 - 0.4
04/04:07am 26.8 30.4 24.3 86 1.7 SSE 13 17 7 9 1007.9 - 0.4

Other Formats:

Comma delimited format used in spreadsheet applications
http://www.bom.gov.au/fwo/IDW60801/IDW60801.96996.axf

JavaScript Object Notation format (JSON) in row-major order
http://www.bom.gov.au/fwo/IDW60801/IDW60801.96996.json